Time;durP1;ratioP1;P1;durP2;ratioP2;P2;SDS_P1;SDS_P2;PMS_P1;PMS_P2;Temp;Humidity;BMP_temperature;BMP_pressure;BME280_temperature;BME280_humidity;BME280_pressure;Samples;Min_cycle;Max_cycle;Signal;HPM_P1;HPM_P2
2021/06/08 00:01:17;;;;;;;7.68;4.90;;;20.60;72.00;;;;;;4952728;28;20032;-70
2021/06/08 00:03:44;;;;;;;5.15;4.65;;;20.50;72.10;;;;;;4953722;28;20059;-70
2021/06/08 00:06:10;;;;;;;6.50;4.90;;;20.50;72.30;;;;;;4953341;28;20278;-70
2021/06/08 00:08:38;;;;;;;9.68;4.55;;;20.50;72.40;;;;;;4953464;28;20085;-70
2021/06/08 00:11:04;;;;;;;8.05;4.85;;;20.50;72.60;;;;;;4953488;28;20023;-70
2021/06/08 00:13:31;;;;;;;8.82;4.63;;;20.50;73.10;;;;;;4953489;28;20072;-73
2021/06/08 00:15:57;;;;;;;11.35;5.10;;;20.50;73.40;;;;;;4953462;28;20035;-71
2021/06/08 00:18:23;;;;;;;9.98;5.00;;;20.40;73.20;;;;;;4953522;28;20019;-70
2021/06/08 00:20:50;;;;;;;7.38;5.10;;;20.40;73.30;;;;;;4953091;28;20039;-70
2021/06/08 00:23:16;;;;;;;7.63;5.10;;;20.40;74.00;;;;;;4952860;28;20097;-73
2021/06/08 00:25:44;;;;;;;8.52;5.05;;;20.40;73.80;;;;;;4953379;28;20035;-71
2021/06/08 00:28:10;;;;;;;10.05;4.80;;;20.40;73.10;;;;;;4953229;28;20023;-71
2021/06/08 00:30:37;;;;;;;8.50;4.65;;;20.30;72.90;;;;;;4953147;28;20539;-70
2021/06/08 00:33:04;;;;;;;6.22;5.00;;;20.30;73.20;;;;;;4953149;28;20051;-70
2021/06/08 00:35:31;;;;;;;7.07;4.70;;;20.30;73.80;;;;;;4953214;28;20062;-70
2021/06/08 00:37:57;;;;;;;8.45;4.55;;;20.20;73.80;;;;;;4953039;28;20498;-70
2021/06/08 00:40:26;;;;;;;7.03;5.00;;;20.30;74.00;;;;;;4951761;28;20411;-70
2021/06/08 00:42:53;;;;;;;9.73;5.35;;;20.30;73.90;;;;;;4953234;28;20027;-70
2021/06/08 00:45:20;;;;;;;9.07;5.00;;;20.30;73.90;;;;;;4952842;29;20517;-71
2021/06/08 00:47:46;;;;;;;6.82;4.90;;;20.20;74.30;;;;;;4953065;28;20198;-74
2021/06/08 00:50:13;;;;;;;9.35;4.90;;;20.20;74.60;;;;;;4953148;28;20118;-70
2021/06/08 00:52:39;;;;;;;6.80;5.03;;;20.10;74.40;;;;;;4953158;28;20059;-70
2021/06/08 00:55:07;;;;;;;7.03;4.88;;;20.10;74.20;;;;;;4952945;28;20071;-74
2021/06/08 00:57:33;;;;;;;9.10;5.00;;;20.20;74.00;;;;;;4951802;28;20045;-70
2021/06/08 00:59:59;;;;;;;10.05;5.00;;;20.10;73.90;;;;;;4949876;28;20394;-70
2021/06/08 01:02:25;;;;;;;7.05;5.32;;;20.10;73.70;;;;;;4949899;28;20031;-73
2021/06/08 01:04:51;;;;;;;8.00;5.45;;;20.10;74.00;;;;;;4951191;28;20022;-72
2021/06/08 01:07:16;;;;;;;7.50;5.50;;;20.10;74.00;;;;;;4951449;29;20114;-70
2021/06/08 01:09:42;;;;;;;10.30;5.20;;;20.10;74.20;;;;;;4952770;28;20027;-70
2021/06/08 01:12:08;;;;;;;7.82;5.68;;;20.10;74.00;;;;;;4952393;28;20046;-72
2021/06/08 01:14:35;;;;;;;8.30;5.68;;;20.00;74.80;;;;;;4952342;28;20085;-74
2021/06/08 01:17:01;;;;;;;8.65;6.15;;;20.00;74.20;;;;;;4952781;28;20098;-70
2021/06/08 01:19:26;;;;;;;6.72;5.53;;;20.00;74.60;;;;;;4952530;28;20528;-70
2021/06/08 01:21:52;;;;;;;9.23;6.07;;;19.90;74.40;;;;;;4952399;28;20031;-70
2021/06/08 01:24:18;;;;;;;7.97;6.68;;;19.90;74.50;;;;;;4952788;28;20054;-70
2021/06/08 01:26:44;;;;;;;12.98;6.47;;;19.90;74.30;;;;;;4952388;28;20015;-71
2021/06/08 01:29:10;;;;;;;9.70;6.57;;;19.90;74.50;;;;;;4952325;28;20476;-70
2021/06/08 01:31:38;;;;;;;11.02;6.10;;;19.90;74.40;;;;;;4952288;28;20024;-70
2021/06/08 01:34:04;;;;;;;7.85;6.13;;;19.90;74.40;;;;;;4952234;28;20038;-70
2021/06/08 01:36:35;;;;;;;8.88;6.15;;;19.90;74.30;;;;;;4950519;28;20035;-70
2021/06/08 01:39:00;;;;;;;6.75;5.78;;;19.90;74.30;;;;;;4952191;28;20031;-71
2021/06/08 01:41:27;;;;;;;7.15;5.72;;;19.90;74.30;;;;;;4952336;28;20031;-73
2021/06/08 01:43:54;;;;;;;7.10;5.30;;;19.80;74.30;;;;;;4951818;28;20027;-70
2021/06/08 01:46:20;;;;;;;6.00;5.40;;;19.80;74.10;;;;;;4952207;28;20112;-70
2021/06/08 01:48:46;;;;;;;9.35;5.50;;;19.80;74.20;;;;;;4951809;28;20066;-70
2021/06/08 01:51:40;;;;;;;7.13;5.50;;;19.70;74.80;;;;;;4951783;28;20027;-70
2021/06/08 01:54:37;;;;;;;6.10;5.38;;;19.60;74.20;;;;;;4952183;28;20027;-70
2021/06/08 01:57:12;;;;;;;8.38;6.00;;;19.60;74.00;;;;;;4952259;28;20035;-71
2021/06/08 01:59:56;;;;;;;10.55;6.03;;;19.60;74.50;;;;;;4951509;28;20131;-70
2021/06/08 02:02:26;;;;;;;8.95;5.78;;;19.60;74.90;;;;;;4952117;28;20075;-70
2021/06/08 02:05:13;;;;;;;9.07;5.80;;;;;;;;;;4951791;28;20032;-69
2021/06/08 02:07:52;;;;;;;11.90;5.75;;;;;;;;;;4979583;28;20031;-70
2021/06/08 02:10:24;;;;;;;5.93;5.32;;;;;;;;;;4951390;28;20124;-74
2021/06/08 02:12:54;;;;;;;8.15;5.57;;;;;;;;;;4951546;28;20026;-70
2021/06/08 02:15:20;;;;;;;9.82;5.53;;;;;;;;;;4950530;28;20413;-70
2021/06/08 02:17:50;;;;;;;9.07;5.75;;;;;;;;;;4951807;28;20070;-70
2021/06/08 02:20:19;;;;;;;10.70;5.47;;;;;;;;;;4951758;28;20034;-70
2021/06/08 02:22:45;;;;;;;6.00;5.40;;;;;;;;;;4950695;28;20023;-70
2021/06/08 02:25:14;;;;;;;9.23;5.65;;;;;;;;;;4952224;28;20437;-70
2021/06/08 02:27:41;;;;;;;8.98;4.95;;;;;;;;;;4955383;28;20020;-74
2021/06/08 02:30:07;;;;;;;10.30;5.32;;;;;;;;;;4955102;28;20446;-70
2021/06/08 02:32:34;;;;;;;12.85;6.10;;;;;;;;;;4954122;28;20181;-70
2021/06/08 02:35:01;;;;;;;9.57;5.57;;;;;;;;;;4954673;28;20075;-70
2021/06/08 02:37:27;;;;;;;9.48;5.53;;;;;;;;;;4955011;28;20055;-70
2021/06/08 02:39:54;;;;;;;9.00;5.65;;;;;;;;;;4954531;28;20053;-70
2021/06/08 02:42:21;;;;;;;15.45;6.30;;;;;;;;;;4954871;28;20101;-70
2021/06/08 02:44:48;;;;;;;9.15;5.28;;;;;;;;;;4954765;28;20063;-70
2021/06/08 02:47:15;;;;;;;7.97;5.35;;;;;;;;;;4952243;28;20019;-70
2021/06/08 02:49:41;;;;;;;9.32;5.15;;;;;;;;;;4954033;28;20093;-69
2021/06/08 02:52:07;;;;;;;14.27;5.60;;;;;;;;;;4953393;28;20047;-69
2021/06/08 02:54:34;;;;;;;9.50;5.65;;;;;;;;;;4952921;28;20066;-69
2021/06/08 02:57:00;;;;;;;11.85;5.00;;;;;;;;;;4954784;28;20028;-71
2021/06/08 02:59:28;;;;;;;6.53;4.85;;;;;;;;;;4954662;28;20035;-69
2021/06/08 03:01:57;;;;;;;10.60;5.38;;;;;;;;;;4953281;28;20031;-69
2021/06/08 03:04:24;;;;;;;13.90;5.07;;;;;;;;;;4953236;28;20030;-69
2021/06/08 03:06:53;;;;;;;8.57;5.72;;;;;;;;;;4954128;28;20027;-70
2021/06/08 03:09:24;;;;;;;9.32;5.45;;;;;;;;;;4954625;28;20426;-69
2021/06/08 03:11:51;;;;;;;10.25;5.47;;;;;;;;;;4954707;28;20023;-73
2021/06/08 03:14:17;;;;;;;12.05;5.15;;;;;;;;;;4954606;28;20027;-73
2021/06/08 03:16:46;;;;;;;6.68;4.47;;;;;;;;;;4954083;28;20042;-69
2021/06/08 03:19:14;;;;;;;8.63;4.95;;;;;;;;;;4953854;28;20034;-70
2021/06/08 03:21:42;;;;;;;7.93;4.78;;;;;;;;;;4954311;28;20062;-70
2021/06/08 03:24:10;;;;;;;13.93;5.03;;;;;;;;;;4954475;28;20023;-73
2021/06/08 03:26:36;;;;;;;8.85;4.88;;;;;;;;;;4954570;28;20026;-70
2021/06/08 03:29:04;;;;;;;5.72;4.80;;;;;;;;;;4954448;28;20041;-70
2021/06/08 03:31:30;;;;;;;7.28;4.82;;;;;;;;;;4954303;28;20031;-69
2021/06/08 03:33:57;;;;;;;11.95;5.07;;;;;;;;;;4954564;28;20114;-69
2021/06/08 03:36:23;;;;;;;9.88;5.00;;;;;;;;;;4954036;28;20035;-69
2021/06/08 03:38:52;;;;;;;8.68;5.15;;;;;;;;;;4954089;28;20064;-73
2021/06/08 03:41:18;;;;;;;11.82;5.75;;;;;;;;;;4953827;28;20032;-69
2021/06/08 03:43:44;;;;;;;6.65;4.72;;;;;;;;;;4953994;28;20483;-70
2021/06/08 03:46:10;;;;;;;10.23;4.93;;;;;;;;;;4954225;28;20031;-69
2021/06/08 03:48:37;;;;;;;9.52;5.10;;;;;;;;;;4954013;28;20058;-69
2021/06/08 03:51:04;;;;;;;12.57;4.95;;;;;;;;;;4953819;28;20053;-68
2021/06/08 03:53:30;;;;;;;5.35;4.65;;;;;;;;;;4953875;28;20015;-69
2021/06/08 03:55:56;;;;;;;8.63;4.60;;;;;;;;;;4952782;28;20118;-69
2021/06/08 03:58:22;;;;;;;12.27;5.18;;;;;;;;;;4952938;28;20038;-69
2021/06/08 04:00:53;;;;;;;5.95;4.88;;;;;;;;;;4953951;28;20392;-69
2021/06/08 04:03:19;;;;;;;5.13;4.40;;;;;;;;;;4953989;28;20027;-69
2021/06/08 04:05:46;;;;;;;7.10;4.80;;;;;;;;;;4953662;28;20080;-69
2021/06/08 04:08:13;;;;;;;13.50;5.25;;;;;;;;;;4953494;28;20027;-73
2021/06/08 04:10:39;;;;;;;10.43;5.35;;;;;;;;;;4953935;28;20032;-69
2021/06/08 04:13:05;;;;;;;9.65;5.38;;;;;;;;;;4952941;28;20027;-69
2021/06/08 04:15:32;;;;;;;11.73;5.32;;;;;;;;;;4952933;28;20046;-69
2021/06/08 04:17:58;;;;;;;14.32;5.38;;;;;;;;;;4953797;28;20027;-73
2021/06/08 04:20:28;;;;;;;10.85;5.63;;;;;;;;;;4953565;28;20390;-69
2021/06/08 04:22:58;;;;;;;13.23;5.72;;;;;;;;;;4953681;28;20024;-69
2021/06/08 04:25:25;;;;;;;8.90;5.57;;;;;;;;;;4953573;28;20035;-70
2021/06/08 04:27:51;;;;;;;8.85;5.90;;;;;;;;;;4952558;28;20024;-69
2021/06/08 04:30:17;;;;;;;13.00;5.57;;;;;;;;;;4952648;28;20432;-69
2021/06/08 04:32:45;;;;;;;12.15;5.55;;;;;;;;;;4952791;28;20043;-69
2021/06/08 04:35:12;;;;;;;9.98;5.68;;;;;;;;;;4953123;28;20547;-73
2021/06/08 04:37:38;;;;;;;10.60;6.13;;;;;;;;;;4951696;28;20395;-70
2021/06/08 04:40:05;;;;;;;10.10;5.70;;;;;;;;;;4952658;28;20028;-69
2021/06/08 04:42:31;;;;;;;6.47;5.47;;;;;;;;;;4953544;28;20384;-72
2021/06/08 04:44:57;;;;;;;10.75;5.70;;;;;;;;;;4953465;28;20108;-69
2021/06/08 04:47:24;;;;;;;9.43;5.85;;;;;;;;;;4952611;28;20030;-68
2021/06/08 04:49:50;;;;;;;10.38;5.70;;;;;;;;;;4952724;28;20028;-70
2021/06/08 04:52:17;;;;;;;11.13;5.68;;;;;;;;;;4952969;28;20032;-69
2021/06/08 04:54:43;;;;;;;10.38;5.63;;;;;;;;;;4952799;28;20023;-69
2021/06/08 04:57:10;;;;;;;13.65;6.22;;;;;;;;;;4953143;28;20023;-69
2021/06/08 04:59:55;;;;;;;14.00;5.28;;;;;;;;;;4952920;28;20028;-70
2021/06/08 05:02:27;;;;;;;11.68;5.95;;;;;;;;;;4952889;28;20106;-73
2021/06/08 05:04:55;;;;;;;10.93;5.43;;;;;;;;;;4950254;28;20471;-70
2021/06/08 05:07:22;;;;;;;16.05;5.80;;;;;;;;;;4952920;28;20031;-69
2021/06/08 05:09:50;;;;;;;22.83;6.60;;;;;;;;;;4952356;28;20380;-69
2021/06/08 05:12:18;;;;;;;8.85;6.03;;;;;;;;;;4952703;28;20031;-72
2021/06/08 05:14:47;;;;;;;11.50;5.53;;;;;;;;;;4952506;28;20023;-69
2021/06/08 05:17:15;;;;;;;14.93;6.30;;;;;;;;;;4950952;28;20031;-71
2021/06/08 05:19:41;;;;;;;10.75;6.03;;;;;;;;;;4952404;28;20019;-74
2021/06/08 05:22:08;;;;;;;11.35;6.22;;;;;;;;;;4952532;28;20055;-69
2021/06/08 05:24:35;;;;;;;10.20;6.78;;;;;;;;;;4952047;28;20377;-69
2021/06/08 05:27:03;;;;;;;16.35;6.13;;;;;;;;;;4953209;28;20067;-69
2021/06/08 05:29:29;;;;;;;11.10;5.60;;;;;;;;;;4952769;28;20510;-69
2021/06/08 05:31:56;;;;;;;9.57;5.65;;;;;;;;;;4952224;28;20495;-69
2021/06/08 05:34:22;;;;;;;10.43;5.80;;;;;;;;;;4952730;28;20031;-72
2021/06/08 05:36:48;;;;;;;11.82;6.05;;;;;;;;;;4952581;28;20484;-69
2021/06/08 05:39:15;;;;;;;12.55;6.38;;;;;;;;;;4952486;28;20429;-69
2021/06/08 05:41:41;;;;;;;12.68;5.85;;;;;;;;;;4951824;28;20027;-71
2021/06/08 05:44:10;;;;;;;9.38;5.97;;;;;;;;;;4950760;28;20031;-73
2021/06/08 05:46:37;;;;;;;13.70;5.60;;;;;;;;;;4952375;28;20042;-70
2021/06/08 05:49:07;;;;;;;12.80;5.93;;;;;;;;;;4951205;28;20597;-69
2021/06/08 05:51:34;;;;;;;7.50;5.25;;;;;;;;;;4950958;28;20031;-69
2021/06/08 05:54:00;;;;;;;10.75;5.15;;;;;;;;;;4951160;28;20097;-69
2021/06/08 05:56:27;;;;;;;9.90;5.57;;;;;;;;;;4952160;28;20042;-69
2021/06/08 05:58:54;;;;;;;10.55;5.70;;;;;;;;;;4952010;28;20444;-69
2021/06/08 06:01:22;;;;;;;13.88;5.70;;;;;;;;;;4951113;28;20034;-70
2021/06/08 06:03:48;;;;;;;10.13;5.50;;;;;;;;;;4949888;28;20472;-70
2021/06/08 06:06:14;;;;;;;8.75;5.20;;;;;;;;;;4950489;28;20026;-69
2021/06/08 06:08:40;;;;;;;9.70;4.80;;;;;;;;;;4951854;28;20081;-69
2021/06/08 06:11:07;;;;;;;10.77;4.68;;;;;;;;;;4952133;28;20024;-70
2021/06/08 06:13:34;;;;;;;8.38;5.40;;;;;;;;;;4952111;28;20102;-69
2021/06/08 06:16:02;;;;;;;8.60;4.93;;;;;;;;;;4951484;28;20039;-69
2021/06/08 06:18:29;;;;;;;9.35;4.15;;;;;;;;;;4951285;28;20073;-69
2021/06/08 06:20:56;;;;;;;11.07;4.30;;;;;;;;;;4951489;28;20116;-73
2021/06/08 06:23:25;;;;;;;13.15;4.75;;;;;;;;;;4951518;28;20023;-70
2021/06/08 06:25:53;;;;;;;10.18;4.40;;;;;;;;;;4952083;28;20077;-75
2021/06/08 06:28:20;;;;;;;8.70;4.80;;;;;;;;;;4951857;28;20023;-72
2021/06/08 06:30:47;;;;;;;9.38;5.40;;;;;;;;;;4951960;28;20085;-72
2021/06/08 06:33:13;;;;;;;8.45;4.60;;;;;;;;;;4951145;28;20041;-72
2021/06/08 06:35:40;;;;;;;7.80;4.95;;;;;;;;;;4949581;28;20058;-73
2021/06/08 06:38:07;;;;;;;8.88;4.63;;;;;;;;;;4950117;28;20102;-76
2021/06/08 06:40:35;;;;;;;8.85;5.20;;;;;;;;;;4950290;28;20436;-75
2021/06/08 06:43:04;;;;;;;6.72;4.70;;;;;;;;;;4950236;28;20027;-72
2021/06/08 06:45:32;;;;;;;11.73;3.85;;;;;;;;;;4964111;28;20078;-77
2021/06/08 06:48:02;;;;;;;5.32;3.90;;;;;;;;;;4949684;28;20063;-72
2021/06/08 06:50:33;;;;;;;6.13;3.85;;;;;;;;;;4950832;28;20020;-73
2021/06/08 06:52:59;;;;;;;13.88;4.07;;;;;;;;;;4950890;28;20035;-77
2021/06/08 06:55:26;;;;;;;4.40;4.00;;;;;;;;;;4951130;28;20403;-76
2021/06/08 06:57:53;;;;;;;5.25;3.40;;;;;;;;;;4951719;28;20031;-73
2021/06/08 07:00:20;;;;;;;9.32;3.70;;;;;;;;;;4951191;28;20134;-72
2021/06/08 07:02:46;;;;;;;5.05;3.38;;;;;;;;;;4951158;28;20027;-72
2021/06/08 07:05:14;;;;;;;7.07;3.70;;;;;;;;;;4950852;28;20058;-73
2021/06/08 07:07:41;;;;;;;6.15;3.70;;;;;;;;;;4950282;28;20448;-72
2021/06/08 07:10:11;;;;;;;5.40;3.72;;;;;;;;;;4950942;28;20048;-72
2021/06/08 07:12:40;;;;;;;16.00;3.65;;;;;;;;;;4954480;28;20054;-73
2021/06/08 07:15:07;;;;;;;9.52;4.32;;;;;;;;;;4954384;28;20023;-72
2021/06/08 07:17:38;;;;;;;7.35;3.70;;;;;;;;;;4954781;28;20035;-76
2021/06/08 07:20:27;;;;;;;7.13;4.13;;;;;;;;;;4954004;28;20020;-73
2021/06/08 07:23:03;;;;;;;9.93;4.07;;;19.50;75.00;;;;;;4954508;28;20032;-72
2021/06/08 07:25:39;;;;;;;4.68;3.70;;;22.00;70.90;;;;;;4953141;28;20062;-72
2021/06/08 07:28:15;;;;;;;5.25;3.70;;;22.10;70.30;;;;;;4968895;28;20557;-72
2021/06/08 07:31:07;;;;;;;6.38;4.15;;;22.10;69.80;;;;;;4965559;28;20050;-72
2021/06/08 07:34:07;;;;;;;6.68;4.00;;;22.20;70.20;;;;;;4953399;28;20414;-72
2021/06/08 07:36:59;;;;;;;6.20;3.80;;;22.30;70.30;;;;;;4954031;28;20037;-79
2021/06/08 07:40:01;;;;;;;6.85;3.88;;;22.40;69.20;;;;;;4954679;28;20035;-80
2021/06/08 07:43:17;;;;;;;5.15;4.13;;;22.50;69.40;;;;;;4971593;28;20066;-78
2021/06/08 07:45:51;;;;;;;6.35;3.75;;;22.50;69.40;;;;;;4953721;28;20061;-71
2021/06/08 07:48:43;;;;;;;4.55;3.67;;;22.60;69.30;;;;;;4952154;28;20099;-71
2021/06/08 07:51:15;;;;;;;8.93;4.20;;;22.70;68.90;;;;;;5036487;28;20496;-71
2021/06/08 07:54:11;;;;;;;9.23;3.95;;;22.70;68.40;;;;;;4966245;28;20039;-71
2021/06/08 07:56:40;;;;;;;6.72;4.15;;;22.80;68.80;;;;;;4956506;28;20087;-71
2021/06/08 07:59:31;;;;;;;6.70;3.97;;;22.90;67.80;;;;;;4967895;28;20365;-71
2021/06/08 08:02:11;;;;;;;8.98;3.78;;;23.00;67.90;;;;;;4952184;28;20039;-80
2021/06/08 08:07:27;;;;;;;4.63;3.55;;;23.20;67.50;;;;;;4954308;29;20122;-79
2021/06/08 08:09:54;;;;;;;10.60;4.00;;;23.20;66.50;;;;;;4968714;28;20039;-79
2021/06/08 08:12:42;;;;;;;5.95;3.88;;;23.20;65.70;;;;;;4984264;28;20116;-81
2021/06/08 08:15:31;;;;;;;7.53;3.55;;;23.30;65.30;;;;;;4952038;28;20081;-81
2021/06/08 08:18:04;;;;;;;6.13;3.67;;;23.40;65.10;;;;;;4937051;28;20106;-76
2021/06/08 08:20:58;;;;;;;4.38;3.60;;;23.50;64.30;;;;;;4934911;29;20016;-81
2021/06/08 08:24:02;;;;;;;5.90;3.70;;;23.60;64.60;;;;;;4935973;29;20044;-81
2021/06/08 08:27:00;;;;;;;6.65;3.75;;;23.70;63.70;;;;;;4948827;28;20134;-78
2021/06/08 08:29:37;;;;;;;5.72;3.50;;;23.80;62.90;;;;;;4967006;28;20039;-72
2021/06/08 08:32:14;;;;;;;4.70;3.78;;;23.80;62.30;;;;;;4989101;23;20168;-72
2021/06/08 08:34:46;;;;;;;5.53;3.70;;;23.80;63.30;;;;;;5030876;28;20039;-74
2021/06/08 08:37:30;;;;;;;4.88;3.28;;;23.90;63.70;;;;;;5030799;28;20625;-74
2021/06/08 08:40:06;;;;;;;;;;;24.00;62.80;;;;;;5032859;28;20042;-74
2021/06/08 08:42:42;;;;;;;7.80;4.18;;;24.10;62.40;;;;;;5031168;28;20026;-74
2021/06/08 08:45:32;;;;;;;8.40;4.00;;;24.20;63.00;;;;;;5031611;28;20045;-74
2021/06/08 08:48:29;;;;;;;4.38;3.25;;;24.40;62.80;;;;;;5032640;28;20080;-74
2021/06/08 08:50:56;;;;;;;6.47;3.50;;;24.50;60.90;;;;;;5033262;28;20029;-74
2021/06/08 08:53:39;;;;;;;5.72;3.60;;;24.60;61.00;;;;;;5033299;28;20029;-74
2021/06/08 08:56:20;;;;;;;7.28;3.95;;;24.70;63.00;;;;;;5032241;28;20132;-74
2021/06/08 08:59:15;;;;;;;4.25;3.30;;;24.80;61.80;;;;;;5034637;28;20080;-74
2021/06/08 09:02:02;;;;;;;6.25;2.92;;;24.80;59.80;;;;;;5015692;28;20041;-73
2021/06/08 09:04:54;;;;;;;5.55;4.00;;;24.90;60.90;;;;;;5034318;28;20061;-74
2021/06/08 09:07:20;;;;;;;4.10;3.70;;;25.00;60.40;;;;;;5033848;28;20037;-74
2021/06/08 09:09:50;;;;;;;8.07;3.67;;;25.10;60.10;;;;;;5032354;28;20038;-74
2021/06/08 09:12:21;;;;;;;5.65;3.20;;;25.20;61.00;;;;;;5032754;28;20025;-74
2021/06/08 09:15:09;;;;;;;8.15;3.53;;;25.30;60.60;;;;;;5034099;28;20064;-74
2021/06/08 09:18:00;;;;;;;5.70;3.50;;;25.40;61.20;;;;;;5034026;28;20466;-74
2021/06/08 09:20:32;;;;;;;5.75;3.33;;;25.50;59.80;;;;;;5033350;28;20111;-74
2021/06/08 09:23:11;;;;;;;3.70;3.30;;;25.60;59.10;;;;;;5033812;28;20034;-74
2021/06/08 09:25:44;;;;;;;6.20;3.45;;;25.60;55.50;;;;;;5033872;28;20028;-74
2021/06/08 09:29:05;;;;;;;6.05;3.05;;;25.60;56.00;;;;;;5033234;28;20037;-74
2021/06/08 09:31:36;;;;;;;5.57;3.10;;;25.70;57.10;;;;;;5029007;28;20326;-74
2021/06/08 09:34:10;;;;;;;5.55;3.40;;;25.70;57.00;;;;;;5030342;28;20041;-74
2021/06/08 09:37:07;;;;;;;12.23;4.65;;;25.80;56.90;;;;;;5033689;28;20049;-74
2021/06/08 09:39:52;;;;;;;6.00;2.90;;;25.70;57.20;;;;;;5032806;28;20406;-74
2021/06/08 09:42:41;;;;;;;3.47;3.15;;;25.80;56.80;;;;;;5033399;28;20108;-74
2021/06/08 09:45:40;;;;;;;3.70;3.30;;;25.80;56.10;;;;;;5031952;28;20505;-74
2021/06/08 09:48:15;;;;;;;7.00;3.00;;;25.80;56.90;;;;;;5033043;28;20037;-74
2021/06/08 09:50:51;;;;;;;4.32;3.22;;;25.80;56.40;;;;;;5033353;28;20378;-74
2021/06/08 09:53:30;;;;;;;3.80;2.90;;;25.80;56.30;;;;;;5033535;28;20041;-74
2021/06/08 09:56:04;;;;;;;3.40;2.90;;;25.80;56.10;;;;;;5033142;28;20515;-75
2021/06/08 09:58:41;;;;;;;5.90;3.20;;;25.90;55.60;;;;;;5033616;28;20029;-73
2021/06/08 10:01:28;;;;;;;4.43;3.25;;;26.00;55.80;;;;;;5048428;28;20104;-74
2021/06/08 10:04:19;;;;;;;3.58;2.58;;;26.20;55.60;;;;;;5033435;28;20021;-74
2021/06/08 10:06:51;;;;;;;3.58;2.70;;;26.40;53.90;;;;;;5032646;28;20112;-74
2021/06/08 10:09:22;;;;;;;3.30;2.63;;;26.50;54.80;;;;;;5033118;28;20581;-73
2021/06/08 10:12:11;;;;;;;5.78;2.95;;;26.60;54.80;;;;;;5032029;28;20052;-73
2021/06/08 10:14:48;;;;;;;5.57;2.92;;;26.70;52.10;;;;;;5031666;28;20017;-74
2021/06/08 10:17:38;;;;;;;6.15;2.92;;;26.70;51.80;;;;;;5032649;28;20073;-74
2021/06/08 10:21:00;;;;;;;11.55;3.08;;;26.70;51.70;;;;;;5032350;28;20122;-73
2021/06/08 10:23:34;;;;;;;4.20;2.42;;;26.70;51.40;;;;;;5032988;28;20018;-74
2021/06/08 10:26:05;;;;;;;6.82;2.80;;;26.60;50.70;;;;;;5031557;28;20029;-74
2021/06/08 10:28:34;;;;;;;7.47;3.13;;;26.60;51.00;;;;;;5032650;28;20033;-75
2021/06/08 10:31:01;;;;;;;3.55;2.70;;;26.50;51.10;;;;;;5032843;28;20037;-74
2021/06/08 10:33:28;;;;;;;8.18;2.75;;;26.50;51.50;;;;;;5031436;28;20045;-74
2021/06/08 10:35:55;;;;;;;4.70;3.10;;;26.50;51.90;;;;;;5032908;28;20041;-74
2021/06/08 10:38:26;;;;;;;4.47;2.75;;;26.60;51.70;;;;;;5031158;28;20068;-74
2021/06/08 10:40:57;;;;;;;3.05;2.50;;;26.50;50.60;;;;;;5032680;28;20038;-74
2021/06/08 10:43:30;;;;;;;6.07;2.90;;;26.50;50.90;;;;;;5032698;28;20018;-73
2021/06/08 10:45:57;;;;;;;4.95;3.03;;;26.50;51.70;;;;;;5033676;28;20099;-73
2021/06/08 10:48:28;;;;;;;4.57;2.85;;;26.40;51.40;;;;;;5035495;28;20021;-74
2021/06/08 10:51:17;;;;;;;4.70;2.90;;;26.30;51.10;;;;;;5036975;28;20053;-74
2021/06/08 10:53:48;;;;;;;5.20;3.05;;;26.20;51.70;;;;;;5036258;28;20401;-74
2021/06/08 10:56:22;;;;;;;4.95;3.08;;;26.10;53.10;;;;;;5035112;28;20076;-73
2021/06/08 10:58:51;;;;;;;5.90;3.67;;;26.00;53.60;;;;;;5036111;28;20029;-73
2021/06/08 11:01:42;;;;;;;4.65;3.00;;;25.90;54.70;;;;;;5036454;28;20424;-73
2021/06/08 11:04:34;;;;;;;6.70;2.80;;;25.80;55.30;;;;;;5036673;28;20041;-73
2021/06/08 11:07:04;;;;;;;6.53;3.08;;;25.70;55.50;;;;;;5036068;28;20059;-72
2021/06/08 11:09:38;;;;;;;6.72;2.42;;;25.60;55.00;;;;;;5035167;28;20360;-73
2021/06/08 11:12:25;;;;;;;5.00;2.80;;;25.40;52.00;;;;;;5035303;28;20505;-74
2021/06/08 11:14:55;;;;;;;7.90;2.80;;;25.30;53.20;;;;;;5036181;28;20121;-73
2021/06/08 11:17:40;;;;;;;6.60;2.95;;;25.10;51.90;;;;;;5036355;28;20033;-73
2021/06/08 11:20:14;;;;;;;3.90;2.80;;;24.90;53.10;;;;;;5036155;28;20026;-72
2021/06/08 11:22:59;;;;;;;3.28;2.85;;;24.70;53.00;;;;;;5036182;28;20492;-73
2021/06/08 11:25:27;;;;;;;3.42;2.05;;;24.60;51.70;;;;;;5034714;28;20037;-73
2021/06/08 11:28:02;;;;;;;4.28;2.20;;;24.50;50.10;;;;;;5034709;28;20026;-73
2021/06/08 11:30:40;;;;;;;3.63;2.53;;;24.40;45.50;;;;;;5035889;28;20481;-74
2021/06/08 11:33:09;;;;;;;3.58;2.60;;;24.40;47.10;;;;;;5035829;28;20111;-74
2021/06/08 11:35:44;;;;;;;2.65;2.45;;;24.30;49.70;;;;;;5034515;28;20030;-73
2021/06/08 11:38:35;;;;;;;3.33;2.17;;;24.40;53.20;;;;;;5018182;28;20029;-75
2021/06/08 11:41:11;;;;;;;3.00;2.40;;;24.40;54.30;;;;;;5036021;28;20029;-74
2021/06/08 11:43:44;;;;;;;2.92;2.40;;;24.50;55.10;;;;;;5035437;28;20264;-73
2021/06/08 11:46:29;;;;;;;3.30;1.98;;;24.50;55.00;;;;;;5035783;28;20021;-73
2021/06/08 11:49:18;;;;;;;2.72;2.10;;;24.70;54.70;;;;;;5035689;28;20033;-73
2021/06/08 11:52:04;;;;;;;2.53;1.83;;;24.90;55.60;;;;;;5034316;28;20481;-73
2021/06/08 11:54:33;;;;;;;2.28;1.95;;;25.10;54.80;;;;;;5035491;28;20029;-73
2021/06/08 11:57:12;;;;;;;2.45;1.83;;;25.30;50.20;;;;;;5034344;28;20041;-72
2021/06/08 11:59:45;;;;;;;4.18;2.10;;;25.50;48.90;;;;;;5017588;28;20061;-72
2021/06/08 12:02:41;;;;;;;3.90;1.88;;;25.80;51.70;;;;;;5035369;28;20028;-72
2021/06/08 12:05:21;;;;;;;2.22;1.88;;;25.90;52.00;;;;;;5035249;28;20024;-73
2021/06/08 12:07:58;;;;;;;2.80;2.53;;;26.10;50.90;;;;;;5035029;28;20026;-72
2021/06/08 12:10:37;;;;;;;4.30;2.63;;;26.10;50.30;;;;;;5035249;28;20018;-72
2021/06/08 12:13:09;;;;;;;6.65;2.83;;;26.20;52.10;;;;;;5035146;28;20035;-72
2021/06/08 12:15:41;;;;;;;4.15;2.90;;;26.20;52.30;;;;;;5034683;28;20108;-71
2021/06/08 12:18:09;;;;;;;3.88;2.88;;;26.20;54.50;;;;;;5034797;28;20028;-72
2021/06/08 12:20:39;;;;;;;10.68;3.90;;;26.20;54.50;;;;;;5035024;28;20038;-71
2021/06/08 12:23:05;;;;;;;7.40;3.80;;;26.20;58.60;;;;;;5035169;28;20021;-71
2021/06/08 12:25:34;;;;;;;10.95;4.03;;;26.10;61.80;;;;;;5035483;28;20025;-71
2021/06/08 12:28:04;;;;;;;9.48;3.80;;;26.00;64.20;;;;;;5034869;28;20029;-71
2021/06/08 12:30:32;;;;;;;5.10;3.22;;;25.90;66.70;;;;;;5032930;28;20071;-71
2021/06/08 12:33:00;;;;;;;3.55;3.25;;;25.80;66.40;;;;;;5027790;28;20049;-71
2021/06/08 12:35:35;;;;;;;6.35;4.00;;;25.70;66.30;;;;;;5033040;28;20392;-72
2021/06/08 12:38:18;;;;;;;5.60;3.30;;;25.50;67.90;;;;;;5033827;28;20099;-72
2021/06/08 12:40:58;;;;;;;8.27;3.80;;;25.40;67.90;;;;;;5033529;28;20420;-74
2021/06/08 12:43:24;;;;;;;5.00;3.70;;;25.30;67.70;;;;;;5047746;28;20077;-73
2021/06/08 12:45:58;;;;;;;4.15;3.55;;;25.40;68.10;;;;;;5033632;28;20025;-72
2021/06/08 12:48:26;;;;;;;4.50;3.42;;;25.40;67.00;;;;;;5033581;28;20104;-72
2021/06/08 12:50:52;;;;;;;5.07;3.70;;;25.60;65.60;;;;;;5033750;28;20065;-73
2021/06/08 12:53:23;;;;;;;5.40;3.30;;;25.60;62.60;;;;;;5032672;28;20036;-73
2021/06/08 12:55:52;;;;;;;6.78;3.65;;;25.70;63.40;;;;;;5032909;28;20441;-72
2021/06/08 12:58:18;;;;;;;3.55;3.22;;;25.80;64.70;;;;;;5032175;28;20517;-73
2021/06/08 13:00:45;;;;;;;3.53;3.22;;;25.80;63.90;;;;;;5033264;28;20482;-72
2021/06/08 13:03:14;;;;;;;4.18;3.08;;;26.00;61.50;;;;;;5033131;28;20018;-72
2021/06/08 13:05:42;;;;;;;4.63;3.00;;;26.00;60.70;;;;;;5033002;28;20021;-72
2021/06/08 13:08:08;;;;;;;3.75;3.35;;;26.10;60.90;;;;;;5032635;28;20490;-73
2021/06/08 13:10:38;;;;;;;3.53;3.13;;;26.20;59.10;;;;;;5033699;28;20087;-75
2021/06/08 13:13:11;;;;;;;4.85;2.92;;;26.30;59.10;;;;;;5032900;28;20017;-75
2021/06/08 13:15:46;;;;;;;4.97;3.17;;;26.30;59.30;;;;;;5033313;28;20507;-75
2021/06/08 13:18:13;;;;;;;3.10;2.80;;;26.30;58.90;;;;;;5015796;28;20038;-75
2021/06/08 13:20:57;;;;;;;5.68;2.90;;;26.40;57.10;;;;;;5033393;28;20405;-73
2021/06/08 13:23:29;;;;;;;2.85;2.50;;;26.50;57.90;;;;;;5032468;28;20374;-74
2021/06/08 13:26:20;;;;;;;6.20;2.53;;;26.50;56.90;;;;;;5033424;28;20176;-74
2021/06/08 13:28:47;;;;;;;4.72;2.63;;;26.50;55.00;;;;;;5033181;28;20064;-74
2021/06/08 13:31:17;;;;;;;2.85;2.53;;;26.50;54.20;;;;;;5015760;28;20492;-74
2021/06/08 13:33:47;;;;;;;4.78;2.50;;;26.50;53.80;;;;;;5033462;28;20525;-75
2021/06/08 13:36:42;;;;;;;5.18;2.50;;;26.50;52.90;;;;;;5033223;28;20041;-75
2021/06/08 13:39:35;;;;;;;3.55;2.20;;;26.40;53.20;;;;;;5033235;28;20110;-75
2021/06/08 13:42:15;;;;;;;3.42;2.40;;;26.30;51.60;;;;;;5033200;28;20068;-75
2021/06/08 13:44:58;;;;;;;6.40;2.67;;;26.30;52.80;;;;;;5033608;28;20030;-75
2021/06/08 13:47:31;;;;;;;2.50;2.30;;;26.30;51.90;;;;;;5033396;28;20025;-74
2021/06/08 13:49:57;;;;;;;3.85;2.70;;;26.20;51.30;;;;;;5033430;28;20065;-75
2021/06/08 13:53:00;;;;;;;5.57;2.60;;;26.20;51.00;;;;;;5032719;28;20029;-76
2021/06/08 13:55:35;;;;;;;3.78;2.80;;;26.10;51.60;;;;;;5032943;28;20132;-74
2021/06/08 14:01:03;;;;;;;3.90;2.90;;;26.10;52.40;;;;;;5033060;28;20053;-74
2021/06/08 14:03:30;;;;;;;3.28;2.50;;;26.10;53.50;;;;;;5032999;28;20044;-74